sensor_id;sensor_type;location;lat;lon;timestamp;P1;durP1;ratioP1;P2;durP2;ratioP2
1360;SDS011;674;45.552;-122.600;2022-11-15T00:01:20;12.77;;;10.10;;
1360;SDS011;674;45.552;-122.600;2022-11-15T00:03:50;13.67;;;10.97;;
1360;SDS011;674;45.552;-122.600;2022-11-15T00:06:19;13.20;;;11.80;;
1360;SDS011;674;45.552;-122.600;2022-11-15T00:08:48;12.43;;;10.43;;
1360;SDS011;674;45.552;-122.600;2022-11-15T00:11:16;16.10;;;10.87;;
1360;SDS011;674;45.552;-122.600;2022-11-15T00:13:45;12.50;;;11.00;;
1360;SDS011;674;45.552;-122.600;2022-11-15T00:16:13;15.73;;;11.17;;
1360;SDS011;674;45.552;-122.600;2022-11-15T00:18:42;12.60;;;10.73;;
1360;SDS011;674;45.552;-122.600;2022-11-15T00:21:16;13.00;;;11.33;;
1360;SDS011;674;45.552;-122.600;2022-11-15T00:23:45;13.83;;;11.40;;
1360;SDS011;674;45.552;-122.600;2022-11-15T00:26:14;15.77;;;11.30;;
1360;SDS011;674;45.552;-122.600;2022-11-15T00:28:43;13.80;;;10.70;;
1360;SDS011;674;45.552;-122.600;2022-11-15T00:31:13;10.73;;;9.53;;
1360;SDS011;674;45.552;-122.600;2022-11-15T00:33:43;13.03;;;9.63;;
1360;SDS011;674;45.552;-122.600;2022-11-15T00:36:12;14.20;;;10.47;;
1360;SDS011;674;45.552;-122.600;2022-11-15T00:38:42;13.73;;;10.33;;
1360;SDS011;674;45.552;-122.600;2022-11-15T00:41:10;11.37;;;10.10;;
1360;SDS011;674;45.552;-122.600;2022-11-15T00:43:39;14.37;;;11.50;;
1360;SDS011;674;45.552;-122.600;2022-11-15T00:46:10;12.53;;;10.10;;
1360;SDS011;674;45.552;-122.600;2022-11-15T00:48:39;12.10;;;9.80;;
1360;SDS011;674;45.552;-122.600;2022-11-15T00:51:07;13.23;;;9.80;;
1360;SDS011;674;45.552;-122.600;2022-11-15T00:53:35;13.20;;;10.90;;
1360;SDS011;674;45.552;-122.600;2022-11-15T00:56:04;11.53;;;9.53;;
1360;SDS011;674;45.552;-122.600;2022-11-15T00:58:33;12.67;;;10.60;;
1360;SDS011;674;45.552;-122.600;2022-11-15T01:01:05;12.83;;;9.73;;
1360;SDS011;674;45.552;-122.600;2022-11-15T01:03:37;10.73;;;9.10;;
1360;SDS011;674;45.552;-122.600;2022-11-15T01:06:08;11.37;;;9.33;;
1360;SDS011;674;45.552;-122.600;2022-11-15T01:08:40;11.00;;;9.90;;
1360;SDS011;674;45.552;-122.600;2022-11-15T01:11:10;11.83;;;10.63;;
1360;SDS011;674;45.552;-122.600;2022-11-15T01:13:39;11.33;;;9.90;;
1360;SDS011;674;45.552;-122.600;2022-11-15T01:16:15;13.70;;;11.13;;
1360;SDS011;674;45.552;-122.600;2022-11-15T01:18:45;12.73;;;10.67;;
1360;SDS011;674;45.552;-122.600;2022-11-15T01:21:15;11.67;;;9.73;;
1360;SDS011;674;45.552;-122.600;2022-11-15T01:23:46;15.03;;;9.70;;
1360;SDS011;674;45.552;-122.600;2022-11-15T01:26:15;12.00;;;9.87;;
1360;SDS011;674;45.552;-122.600;2022-11-15T01:28:43;13.27;;;10.03;;
1360;SDS011;674;45.552;-122.600;2022-11-15T01:31:13;10.90;;;9.73;;
1360;SDS011;674;45.552;-122.600;2022-11-15T01:33:43;10.70;;;9.07;;
1360;SDS011;674;45.552;-122.600;2022-11-15T01:36:17;12.10;;;10.03;;
1360;SDS011;674;45.552;-122.600;2022-11-15T01:38:55;11.00;;;8.93;;
1360;SDS011;674;45.552;-122.600;2022-11-15T01:41:28;11.03;;;9.83;;
1360;SDS011;674;45.552;-122.600;2022-11-15T01:46:59;9.70;;;8.50;;
1360;SDS011;674;45.552;-122.600;2022-11-15T01:49:35;10.60;;;9.50;;
1360;SDS011;674;45.552;-122.600;2022-11-15T01:52:09;11.03;;;9.27;;
1360;SDS011;674;45.552;-122.600;2022-11-15T01:54:40;10.80;;;8.80;;
1360;SDS011;674;45.552;-122.600;2022-11-15T01:57:10;8.77;;;7.63;;
1360;SDS011;674;45.552;-122.600;2022-11-15T01:59:41;11.00;;;9.03;;
1360;SDS011;674;45.552;-122.600;2022-11-15T02:02:12;10.80;;;9.27;;
1360;SDS011;674;45.552;-122.600;2022-11-15T02:04:41;11.17;;;8.97;;
1360;SDS011;674;45.552;-122.600;2022-11-15T02:07:16;9.70;;;8.33;;
1360;SDS011;674;45.552;-122.600;2022-11-15T02:09:47;12.40;;;8.47;;
1360;SDS011;674;45.552;-122.600;2022-11-15T02:12:18;10.23;;;8.70;;
1360;SDS011;674;45.552;-122.600;2022-11-15T02:14:50;14.17;;;9.10;;
1360;SDS011;674;45.552;-122.600;2022-11-15T02:22:41;9.13;;;8.10;;
1360;SDS011;674;45.552;-122.600;2022-11-15T02:25:39;11.10;;;8.10;;
1360;SDS011;674;45.552;-122.600;2022-11-15T02:42:43;8.97;;;7.70;;
1360;SDS011;674;45.552;-122.600;2022-11-15T02:45:32;10.30;;;8.60;;
1360;SDS011;674;45.552;-122.600;2022-11-15T02:48:22;10.03;;;8.00;;
1360;SDS011;674;45.552;-122.600;2022-11-15T02:50:52;9.63;;;7.23;;
1360;SDS011;674;45.552;-122.600;2022-11-15T02:53:25;11.43;;;8.07;;
1360;SDS011;674;45.552;-122.600;2022-11-15T02:55:54;10.23;;;7.97;;
1360;SDS011;674;45.552;-122.600;2022-11-15T03:01:00;9.63;;;7.53;;
1360;SDS011;674;45.552;-122.600;2022-11-15T03:04:02;9.23;;;8.23;;
1360;SDS011;674;45.552;-122.600;2022-11-15T03:06:53;10.33;;;7.67;;
1360;SDS011;674;45.552;-122.600;2022-11-15T03:09:35;8.63;;;7.30;;
1360;SDS011;674;45.552;-122.600;2022-11-15T03:12:24;10.20;;;8.60;;
1360;SDS011;674;45.552;-122.600;2022-11-15T03:15:06;11.27;;;8.80;;
1360;SDS011;674;45.552;-122.600;2022-11-15T03:18:21;10.07;;;7.30;;
1360;SDS011;674;45.552;-122.600;2022-11-15T03:20:57;9.83;;;7.10;;
1360;SDS011;674;45.552;-122.600;2022-11-15T03:23:29;9.20;;;7.33;;
1360;SDS011;674;45.552;-122.600;2022-11-15T03:26:00;11.30;;;9.23;;
1360;SDS011;674;45.552;-122.600;2022-11-15T03:28:36;9.47;;;8.00;;
1360;SDS011;674;45.552;-122.600;2022-11-15T03:31:15;10.30;;;7.33;;
1360;SDS011;674;45.552;-122.600;2022-11-15T03:34:05;9.60;;;7.13;;
1360;SDS011;674;45.552;-122.600;2022-11-15T03:36:38;11.83;;;7.93;;
1360;SDS011;674;45.552;-122.600;2022-11-15T03:39:07;9.07;;;7.30;;
1360;SDS011;674;45.552;-122.600;2022-11-15T03:41:44;15.30;;;7.63;;
1360;SDS011;674;45.552;-122.600;2022-11-15T03:47:15;9.40;;;7.17;;
1360;SDS011;674;45.552;-122.600;2022-11-15T03:50:12;8.40;;;7.10;;
1360;SDS011;674;45.552;-122.600;2022-11-15T03:52:44;10.23;;;7.20;;
1360;SDS011;674;45.552;-122.600;2022-11-15T03:55:16;11.03;;;8.20;;
1360;SDS011;674;45.552;-122.600;2022-11-15T03:57:47;8.30;;;7.17;;
1360;SDS011;674;45.552;-122.600;2022-11-15T04:00:18;8.80;;;7.03;;
1360;SDS011;674;45.552;-122.600;2022-11-15T04:02:46;9.13;;;6.40;;
1360;SDS011;674;45.552;-122.600;2022-11-15T04:05:15;13.20;;;9.87;;
1360;SDS011;674;45.552;-122.600;2022-11-15T04:07:44;9.67;;;7.37;;
1360;SDS011;674;45.552;-122.600;2022-11-15T04:10:13;10.20;;;7.10;;
1360;SDS011;674;45.552;-122.600;2022-11-15T04:12:42;9.53;;;7.37;;
1360;SDS011;674;45.552;-122.600;2022-11-15T04:15:23;9.53;;;6.90;;
1360;SDS011;674;45.552;-122.600;2022-11-15T04:17:52;9.80;;;7.80;;
1360;SDS011;674;45.552;-122.600;2022-11-15T04:23:17;8.90;;;7.93;;
1360;SDS011;674;45.552;-122.600;2022-11-15T04:26:09;9.50;;;7.33;;
1360;SDS011;674;45.552;-122.600;2022-11-15T04:28:44;9.73;;;7.33;;
1360;SDS011;674;45.552;-122.600;2022-11-15T04:31:31;11.33;;;7.63;;
1360;SDS011;674;45.552;-122.600;2022-11-15T04:34:00;9.37;;;7.13;;
1360;SDS011;674;45.552;-122.600;2022-11-15T04:36:28;8.93;;;7.07;;
1360;SDS011;674;45.552;-122.600;2022-11-15T04:39:15;8.17;;;7.30;;
1360;SDS011;674;45.552;-122.600;2022-11-15T04:41:43;8.77;;;7.50;;
1360;SDS011;674;45.552;-122.600;2022-11-15T04:44:12;9.10;;;7.33;;
1360;SDS011;674;45.552;-122.600;2022-11-15T04:46:40;12.63;;;8.87;;
1360;SDS011;674;45.552;-122.600;2022-11-15T04:49:09;8.70;;;7.27;;
1360;SDS011;674;45.552;-122.600;2022-11-15T04:51:37;10.37;;;8.27;;
1360;SDS011;674;45.552;-122.600;2022-11-15T04:54:06;9.13;;;7.40;;
1360;SDS011;674;45.552;-122.600;2022-11-15T04:56:34;10.60;;;8.53;;
1360;SDS011;674;45.552;-122.600;2022-11-15T04:59:03;13.67;;;9.93;;
1360;SDS011;674;45.552;-122.600;2022-11-15T05:01:31;8.83;;;7.90;;
1360;SDS011;674;45.552;-122.600;2022-11-15T05:03:59;9.07;;;6.90;;
1360;SDS011;674;45.552;-122.600;2022-11-15T05:06:47;12.80;;;8.57;;
1360;SDS011;674;45.552;-122.600;2022-11-15T05:09:17;9.77;;;7.30;;
1360;SDS011;674;45.552;-122.600;2022-11-15T05:11:47;8.87;;;7.70;;
1360;SDS011;674;45.552;-122.600;2022-11-15T05:14:16;13.27;;;8.20;;
1360;SDS011;674;45.552;-122.600;2022-11-15T05:16:44;10.07;;;8.10;;
1360;SDS011;674;45.552;-122.600;2022-11-15T05:19:14;8.30;;;7.03;;
1360;SDS011;674;45.552;-122.600;2022-11-15T05:21:42;10.90;;;8.23;;
1360;SDS011;674;45.552;-122.600;2022-11-15T05:24:11;11.13;;;8.80;;
1360;SDS011;674;45.552;-122.600;2022-11-15T05:26:40;9.27;;;7.53;;
1360;SDS011;674;45.552;-122.600;2022-11-15T05:29:08;9.83;;;7.63;;
1360;SDS011;674;45.552;-122.600;2022-11-15T05:31:39;8.73;;;7.67;;
1360;SDS011;674;45.552;-122.600;2022-11-15T05:34:09;9.60;;;7.60;;
1360;SDS011;674;45.552;-122.600;2022-11-15T05:36:40;11.10;;;7.80;;
1360;SDS011;674;45.552;-122.600;2022-11-15T05:39:10;9.30;;;7.30;;
1360;SDS011;674;45.552;-122.600;2022-11-15T05:41:43;10.17;;;7.20;;
1360;SDS011;674;45.552;-122.600;2022-11-15T05:44:19;9.30;;;7.40;;
1360;SDS011;674;45.552;-122.600;2022-11-15T05:46:50;10.07;;;7.50;;
1360;SDS011;674;45.552;-122.600;2022-11-15T05:49:23;15.20;;;10.73;;
1360;SDS011;674;45.552;-122.600;2022-11-15T05:51:54;10.53;;;8.07;;
1360;SDS011;674;45.552;-122.600;2022-11-15T05:54:24;13.03;;;7.20;;
1360;SDS011;674;45.552;-122.600;2022-11-15T05:56:53;11.60;;;7.43;;
1360;SDS011;674;45.552;-122.600;2022-11-15T05:59:23;14.77;;;10.03;;
1360;SDS011;674;45.552;-122.600;2022-11-15T06:01:52;9.10;;;6.87;;
1360;SDS011;674;45.552;-122.600;2022-11-15T06:04:20;8.60;;;6.90;;
1360;SDS011;674;45.552;-122.600;2022-11-15T06:06:49;9.67;;;8.07;;
1360;SDS011;674;45.552;-122.600;2022-11-15T06:09:17;9.07;;;7.10;;
1360;SDS011;674;45.552;-122.600;2022-11-15T06:11:46;11.43;;;9.47;;
1360;SDS011;674;45.552;-122.600;2022-11-15T06:14:15;10.47;;;7.83;;
1360;SDS011;674;45.552;-122.600;2022-11-15T06:16:43;10.07;;;7.47;;
1360;SDS011;674;45.552;-122.600;2022-11-15T06:19:12;9.13;;;7.47;;
1360;SDS011;674;45.552;-122.600;2022-11-15T06:21:40;9.37;;;7.00;;
1360;SDS011;674;45.552;-122.600;2022-11-15T06:24:08;9.30;;;8.10;;
1360;SDS011;674;45.552;-122.600;2022-11-15T06:26:37;10.60;;;7.50;;
1360;SDS011;674;45.552;-122.600;2022-11-15T06:29:05;8.93;;;8.03;;
1360;SDS011;674;45.552;-122.600;2022-11-15T06:31:34;8.30;;;6.33;;
1360;SDS011;674;45.552;-122.600;2022-11-15T06:34:02;12.30;;;9.23;;
1360;SDS011;674;45.552;-122.600;2022-11-15T06:36:31;8.70;;;7.33;;
1360;SDS011;674;45.552;-122.600;2022-11-15T06:39:03;9.50;;;7.80;;
1360;SDS011;674;45.552;-122.600;2022-11-15T06:41:35;15.50;;;8.87;;
1360;SDS011;674;45.552;-122.600;2022-11-15T06:44:04;13.77;;;9.70;;
1360;SDS011;674;45.552;-122.600;2022-11-15T06:46:32;10.30;;;8.53;;
1360;SDS011;674;45.552;-122.600;2022-11-15T06:49:00;9.97;;;8.40;;
1360;SDS011;674;45.552;-122.600;2022-11-15T06:51:35;15.10;;;10.13;;
1360;SDS011;674;45.552;-122.600;2022-11-15T06:54:03;11.30;;;9.00;;
1360;SDS011;674;45.552;-122.600;2022-11-15T06:56:33;9.83;;;8.23;;
1360;SDS011;674;45.552;-122.600;2022-11-15T06:59:01;13.00;;;8.98;;
1360;SDS011;674;45.552;-122.600;2022-11-15T07:01:30;11.13;;;8.47;;
1360;SDS011;674;45.552;-122.600;2022-11-15T07:03:58;9.10;;;8.10;;
1360;SDS011;674;45.552;-122.600;2022-11-15T07:06:27;12.03;;;8.87;;
1360;SDS011;674;45.552;-122.600;2022-11-15T07:08:55;13.50;;;10.13;;
1360;SDS011;674;45.552;-122.600;2022-11-15T07:11:23;11.70;;;9.30;;
1360;SDS011;674;45.552;-122.600;2022-11-15T07:13:52;12.63;;;8.93;;
1360;SDS011;674;45.552;-122.600;2022-11-15T07:16:20;12.07;;;9.80;;
1360;SDS011;674;45.552;-122.600;2022-11-15T07:18:49;12.20;;;9.40;;
1360;SDS011;674;45.552;-122.600;2022-11-15T07:21:17;12.93;;;10.47;;
1360;SDS011;674;45.552;-122.600;2022-11-15T07:23:52;16.33;;;11.00;;
1360;SDS011;674;45.552;-122.600;2022-11-15T07:26:21;12.97;;;8.00;;
1360;SDS011;674;45.552;-122.600;2022-11-15T07:28:49;13.50;;;9.33;;
1360;SDS011;674;45.552;-122.600;2022-11-15T07:31:18;11.43;;;8.70;;
1360;SDS011;674;45.552;-122.600;2022-11-15T07:33:46;10.33;;;9.17;;
1360;SDS011;674;45.552;-122.600;2022-11-15T07:36:14;14.77;;;10.80;;
1360;SDS011;674;45.552;-122.600;2022-11-15T07:38:43;10.97;;;9.70;;
1360;SDS011;674;45.552;-122.600;2022-11-15T07:41:11;11.50;;;9.40;;
1360;SDS011;674;45.552;-122.600;2022-11-15T07:43:40;15.43;;;11.13;;
1360;SDS011;674;45.552;-122.600;2022-11-15T07:46:08;15.50;;;11.40;;
1360;SDS011;674;45.552;-122.600;2022-11-15T07:48:37;12.07;;;10.23;;
1360;SDS011;674;45.552;-122.600;2022-11-15T07:51:11;20.70;;;13.23;;
1360;SDS011;674;45.552;-122.600;2022-11-15T07:53:43;16.37;;;10.00;;
1360;SDS011;674;45.552;-122.600;2022-11-15T07:56:12;13.53;;;10.60;;
1360;SDS011;674;45.552;-122.600;2022-11-15T07:58:41;14.27;;;9.23;;
1360;SDS011;674;45.552;-122.600;2022-11-15T08:01:11;15.73;;;10.20;;
1360;SDS011;674;45.552;-122.600;2022-11-15T08:03:40;16.50;;;11.47;;
1360;SDS011;674;45.552;-122.600;2022-11-15T08:06:08;15.17;;;10.07;;
1360;SDS011;674;45.552;-122.600;2022-11-15T08:08:37;12.60;;;10.40;;
1360;SDS011;674;45.552;-122.600;2022-11-15T08:11:05;13.83;;;9.90;;
1360;SDS011;674;45.552;-122.600;2022-11-15T08:13:34;13.27;;;10.40;;
1360;SDS011;674;45.552;-122.600;2022-11-15T08:16:02;19.10;;;11.00;;
1360;SDS011;674;45.552;-122.600;2022-11-15T08:18:32;13.60;;;10.73;;
1360;SDS011;674;45.552;-122.600;2022-11-15T08:21:01;10.60;;;8.90;;
1360;SDS011;674;45.552;-122.600;2022-11-15T08:23:29;13.40;;;10.40;;
1360;SDS011;674;45.552;-122.600;2022-11-15T08:26:00;14.70;;;10.70;;
1360;SDS011;674;45.552;-122.600;2022-11-15T08:28:30;14.27;;;11.30;;
1360;SDS011;674;45.552;-122.600;2022-11-15T08:30:59;16.00;;;10.83;;
1360;SDS011;674;45.552;-122.600;2022-11-15T08:33:28;15.33;;;10.10;;
1360;SDS011;674;45.552;-122.600;2022-11-15T08:35:58;14.73;;;10.60;;
1360;SDS011;674;45.552;-122.600;2022-11-15T08:38:27;15.60;;;11.20;;
1360;SDS011;674;45.552;-122.600;2022-11-15T08:41:01;14.30;;;10.40;;
1360;SDS011;674;45.552;-122.600;2022-11-15T08:43:31;14.73;;;10.27;;
1360;SDS011;674;45.552;-122.600;2022-11-15T08:46:01;15.60;;;11.27;;
1360;SDS011;674;45.552;-122.600;2022-11-15T08:48:29;14.23;;;11.03;;
1360;SDS011;674;45.552;-122.600;2022-11-15T08:50:58;16.63;;;11.70;;
1360;SDS011;674;45.552;-122.600;2022-11-15T08:53:27;17.07;;;12.87;;
1360;SDS011;674;45.552;-122.600;2022-11-15T08:55:55;12.90;;;10.53;;
1360;SDS011;674;45.552;-122.600;2022-11-15T08:58:23;15.18;;;11.38;;
1360;SDS011;674;45.552;-122.600;2022-11-15T09:00:52;13.47;;;9.90;;
1360;SDS011;674;45.552;-122.600;2022-11-15T09:03:20;14.52;;;11.18;;
1360;SDS011;674;45.552;-122.600;2022-11-15T09:05:53;16.20;;;12.10;;
1360;SDS011;674;45.552;-122.600;2022-11-15T09:08:23;16.20;;;11.70;;
1360;SDS011;674;45.552;-122.600;2022-11-15T09:11:12;19.93;;;11.73;;
1360;SDS011;674;45.552;-122.600;2022-11-15T09:13:41;15.30;;;11.33;;
1360;SDS011;674;45.552;-122.600;2022-11-15T09:16:10;16.02;;;12.20;;
1360;SDS011;674;45.552;-122.600;2022-11-15T09:18:39;14.03;;;11.20;;
1360;SDS011;674;45.552;-122.600;2022-11-15T09:21:08;15.53;;;12.30;;
1360;SDS011;674;45.552;-122.600;2022-11-15T09:23:37;17.13;;;12.87;;
1360;SDS011;674;45.552;-122.600;2022-11-15T09:26:06;17.48;;;12.77;;
1360;SDS011;674;45.552;-122.600;2022-11-15T09:28:35;14.47;;;11.37;;
1360;SDS011;674;45.552;-122.600;2022-11-15T09:31:05;19.50;;;12.63;;
1360;SDS011;674;45.552;-122.600;2022-11-15T09:33:34;16.00;;;11.73;;
1360;SDS011;674;45.552;-122.600;2022-11-15T09:36:03;18.37;;;12.67;;
1360;SDS011;674;45.552;-122.600;2022-11-15T09:38:34;17.57;;;12.87;;
1360;SDS011;674;45.552;-122.600;2022-11-15T09:49:16;17.27;;;13.55;;
1360;SDS011;674;45.552;-122.600;2022-11-15T09:51:47;18.23;;;14.17;;
1360;SDS011;674;45.552;-122.600;2022-11-15T09:54:23;18.67;;;12.80;;
1360;SDS011;674;45.552;-122.600;2022-11-15T09:57:21;21.40;;;13.30;;
1360;SDS011;674;45.552;-122.600;2022-11-15T10:03:16;17.55;;;13.10;;
1360;SDS011;674;45.552;-122.600;2022-11-15T10:05:49;24.43;;;13.80;;
1360;SDS011;674;45.552;-122.600;2022-11-15T10:11:20;19.60;;;13.97;;
1360;SDS011;674;45.552;-122.600;2022-11-15T10:14:15;20.23;;;13.70;;
1360;SDS011;674;45.552;-122.600;2022-11-15T10:20:10;19.17;;;13.87;;
1360;SDS011;674;45.552;-122.600;2022-11-15T10:22:46;20.90;;;13.40;;
1360;SDS011;674;45.552;-122.600;2022-11-15T10:25:22;18.40;;;14.10;;
1360;SDS011;674;45.552;-122.600;2022-11-15T10:27:57;18.75;;;13.55;;
1360;SDS011;674;45.552;-122.600;2022-11-15T10:30:40;18.80;;;13.30;;
1360;SDS011;674;45.552;-122.600;2022-11-15T10:33:23;18.20;;;12.90;;
1360;SDS011;674;45.552;-122.600;2022-11-15T10:41:21;18.50;;;13.20;;
1360;SDS011;674;45.552;-122.600;2022-11-15T10:46:37;20.25;;;14.48;;
1360;SDS011;674;45.552;-122.600;2022-11-15T10:51:48;20.20;;;13.77;;
1360;SDS011;674;45.552;-122.600;2022-11-15T10:54:25;18.23;;;13.40;;
1360;SDS011;674;45.552;-122.600;2022-11-15T10:57:00;18.17;;;13.70;;
1360;SDS011;674;45.552;-122.600;2022-11-15T11:02:58;18.67;;;13.98;;
1360;SDS011;674;45.552;-122.600;2022-11-15T11:05:38;20.13;;;14.10;;
1360;SDS011;674;45.552;-122.600;2022-11-15T11:10:51;19.00;;;13.55;;
1360;SDS011;674;45.552;-122.600;2022-11-15T11:21:53;19.25;;;14.07;;
1360;SDS011;674;45.552;-122.600;2022-11-15T11:24:41;20.73;;;14.25;;
1360;SDS011;674;45.552;-122.600;2022-11-15T11:30:22;20.92;;;13.63;;
1360;SDS011;674;45.552;-122.600;2022-11-15T11:36:03;20.10;;;13.95;;
1360;SDS011;674;45.552;-122.600;2022-11-15T11:41:46;20.30;;;15.65;;
1360;SDS011;674;45.552;-122.600;2022-11-15T11:49:49;19.83;;;13.53;;
1360;SDS011;674;45.552;-122.600;2022-11-15T11:52:33;20.50;;;13.75;;
1360;SDS011;674;45.552;-122.600;2022-11-15T12:00:23;19.10;;;14.57;;
1360;SDS011;674;45.552;-122.600;2022-11-15T12:03:09;19.23;;;14.20;;
1360;SDS011;674;45.552;-122.600;2022-11-15T12:05:44;20.70;;;13.73;;
1360;SDS011;674;45.552;-122.600;2022-11-15T12:13:58;19.10;;;15.00;;
1360;SDS011;674;45.552;-122.600;2022-11-15T12:16:29;19.20;;;14.13;;
1360;SDS011;674;45.552;-122.600;2022-11-15T12:19:00;19.70;;;14.32;;
1360;SDS011;674;45.552;-122.600;2022-11-15T12:21:38;19.85;;;14.10;;
1360;SDS011;674;45.552;-122.600;2022-11-15T12:24:21;23.38;;;15.20;;
1360;SDS011;674;45.552;-122.600;2022-11-15T12:26:57;20.43;;;14.43;;
1360;SDS011;674;45.552;-122.600;2022-11-15T12:29:53;22.40;;;15.45;;
1360;SDS011;674;45.552;-122.600;2022-11-15T12:32:36;23.83;;;15.43;;
1360;SDS011;674;45.552;-122.600;2022-11-15T12:35:20;21.05;;;15.40;;
1360;SDS011;674;45.552;-122.600;2022-11-15T12:38:03;18.98;;;14.52;;
1360;SDS011;674;45.552;-122.600;2022-11-15T12:43:48;20.83;;;14.98;;
1360;SDS011;674;45.552;-122.600;2022-11-15T12:48:59;23.75;;;15.75;;
1360;SDS011;674;45.552;-122.600;2022-11-15T13:02:26;18.23;;;12.82;;
1360;SDS011;674;45.552;-122.600;2022-11-15T13:12:58;22.07;;;14.70;;
1360;SDS011;674;45.552;-122.600;2022-11-15T13:15:31;19.83;;;14.43;;
1360;SDS011;674;45.552;-122.600;2022-11-15T13:20:55;20.98;;;14.68;;
1360;SDS011;674;45.552;-122.600;2022-11-15T13:23:28;17.60;;;14.40;;
1360;SDS011;674;45.552;-122.600;2022-11-15T13:31:51;19.97;;;13.90;;
1360;SDS011;674;45.552;-122.600;2022-11-15T13:34:16;18.13;;;13.63;;
1360;SDS011;674;45.552;-122.600;2022-11-15T13:39:48;21.10;;;15.30;;
1360;SDS011;674;45.552;-122.600;2022-11-15T13:42:18;17.42;;;13.10;;
1360;SDS011;674;45.552;-122.600;2022-11-15T13:44:57;20.10;;;13.70;;
1360;SDS011;674;45.552;-122.600;2022-11-15T13:47:28;19.80;;;15.35;;
1360;SDS011;674;45.552;-122.600;2022-11-15T13:49:59;19.48;;;13.25;;
1360;SDS011;674;45.552;-122.600;2022-11-15T13:52:36;27.98;;;16.90;;
1360;SDS011;674;45.552;-122.600;2022-11-15T13:55:21;23.10;;;14.55;;
1360;SDS011;674;45.552;-122.600;2022-11-15T13:57:53;20.43;;;14.43;;
1360;SDS011;674;45.552;-122.600;2022-11-15T14:00:26;19.58;;;13.43;;
1360;SDS011;674;45.552;-122.600;2022-11-15T14:03:37;18.98;;;14.10;;
1360;SDS011;674;45.552;-122.600;2022-11-15T14:06:05;16.58;;;12.85;;
1360;SDS011;674;45.552;-122.600;2022-11-15T14:08:42;19.55;;;13.40;;
1360;SDS011;674;45.552;-122.600;2022-11-15T14:11:34;18.55;;;13.75;;
1360;SDS011;674;45.552;-122.600;2022-11-15T14:16:47;16.60;;;13.00;;
1360;SDS011;674;45.552;-122.600;2022-11-15T14:24:43;22.30;;;15.38;;
1360;SDS011;674;45.552;-122.600;2022-11-15T14:27:24;19.67;;;13.98;;
1360;SDS011;674;45.552;-122.600;2022-11-15T14:29:54;22.02;;;14.27;;
1360;SDS011;674;45.552;-122.600;2022-11-15T14:34:59;19.50;;;13.73;;
1360;SDS011;674;45.552;-122.600;2022-11-15T14:37:30;18.58;;;13.40;;
1360;SDS011;674;45.552;-122.600;2022-11-15T14:40:03;18.83;;;14.23;;
1360;SDS011;674;45.552;-122.600;2022-11-15T14:42:32;18.55;;;14.07;;
1360;SDS011;674;45.552;-122.600;2022-11-15T14:45:01;17.95;;;12.60;;
1360;SDS011;674;45.552;-122.600;2022-11-15T14:47:29;23.95;;;13.05;;
1360;SDS011;674;45.552;-122.600;2022-11-15T14:49:58;17.05;;;12.27;;
1360;SDS011;674;45.552;-122.600;2022-11-15T14:52:27;17.77;;;11.80;;
1360;SDS011;674;45.552;-122.600;2022-11-15T14:54:59;19.25;;;13.43;;
1360;SDS011;674;45.552;-122.600;2022-11-15T14:57:29;21.80;;;15.13;;
1360;SDS011;674;45.552;-122.600;2022-11-15T15:00:08;17.05;;;13.07;;
1360;SDS011;674;45.552;-122.600;2022-11-15T15:02:37;24.23;;;15.30;;
1360;SDS011;674;45.552;-122.600;2022-11-15T15:07:47;17.20;;;12.80;;
1360;SDS011;674;45.552;-122.600;2022-11-15T15:10:16;18.45;;;12.38;;
1360;SDS011;674;45.552;-122.600;2022-11-15T15:13:05;15.27;;;11.40;;
1360;SDS011;674;45.552;-122.600;2022-11-15T15:15:45;17.23;;;12.07;;
1360;SDS011;674;45.552;-122.600;2022-11-15T15:18:14;13.40;;;11.60;;
1360;SDS011;674;45.552;-122.600;2022-11-15T15:20:43;17.73;;;11.70;;
1360;SDS011;674;45.552;-122.600;2022-11-15T15:23:15;17.15;;;12.45;;
1360;SDS011;674;45.552;-122.600;2022-11-15T15:25:46;19.03;;;14.20;;
1360;SDS011;674;45.552;-122.600;2022-11-15T15:28:16;18.60;;;12.95;;
1360;SDS011;674;45.552;-122.600;2022-11-15T15:30:44;18.60;;;13.03;;
1360;SDS011;674;45.552;-122.600;2022-11-15T15:33:12;16.92;;;11.60;;
1360;SDS011;674;45.552;-122.600;2022-11-15T15:35:41;14.65;;;11.52;;
1360;SDS011;674;45.552;-122.600;2022-11-15T15:38:12;17.20;;;12.83;;
1360;SDS011;674;45.552;-122.600;2022-11-15T15:40:42;17.70;;;12.50;;
1360;SDS011;674;45.552;-122.600;2022-11-15T15:43:11;15.30;;;10.70;;
1360;SDS011;674;45.552;-122.600;2022-11-15T15:45:40;18.15;;;12.50;;
1360;SDS011;674;45.552;-122.600;2022-11-15T15:48:13;18.30;;;13.15;;
1360;SDS011;674;45.552;-122.600;2022-11-15T15:50:43;20.45;;;11.57;;
1360;SDS011;674;45.552;-122.600;2022-11-15T15:53:12;16.42;;;12.38;;
1360;SDS011;674;45.552;-122.600;2022-11-15T15:55:41;18.10;;;11.68;;
1360;SDS011;674;45.552;-122.600;2022-11-15T15:58:09;15.37;;;12.53;;
1360;SDS011;674;45.552;-122.600;2022-11-15T16:00:38;15.43;;;10.43;;
1360;SDS011;674;45.552;-122.600;2022-11-15T16:03:06;14.77;;;11.77;;
1360;SDS011;674;45.552;-122.600;2022-11-15T16:05:35;17.53;;;12.00;;
1360;SDS011;674;45.552;-122.600;2022-11-15T16:08:03;16.77;;;11.00;;
1360;SDS011;674;45.552;-122.600;2022-11-15T16:10:32;16.63;;;12.52;;
1360;SDS011;674;45.552;-122.600;2022-11-15T16:13:01;17.67;;;12.15;;
1360;SDS011;674;45.552;-122.600;2022-11-15T16:15:31;15.87;;;11.53;;
1360;SDS011;674;45.552;-122.600;2022-11-15T16:18:00;15.37;;;10.93;;
1360;SDS011;674;45.552;-122.600;2022-11-15T16:23:07;14.90;;;11.03;;
1360;SDS011;674;45.552;-122.600;2022-11-15T16:25:41;14.97;;;10.57;;
1360;SDS011;674;45.552;-122.600;2022-11-15T16:28:19;15.40;;;11.50;;
1360;SDS011;674;45.552;-122.600;2022-11-15T16:31:04;16.07;;;10.97;;
1360;SDS011;674;45.552;-122.600;2022-11-15T16:33:35;14.63;;;10.07;;
1360;SDS011;674;45.552;-122.600;2022-11-15T16:36:04;21.73;;;11.40;;
1360;SDS011;674;45.552;-122.600;2022-11-15T16:38:41;13.80;;;10.57;;
1360;SDS011;674;45.552;-122.600;2022-11-15T16:41:10;15.50;;;10.67;;
1360;SDS011;674;45.552;-122.600;2022-11-15T16:43:38;17.30;;;10.70;;
1360;SDS011;674;45.552;-122.600;2022-11-15T16:46:08;15.20;;;10.67;;
1360;SDS011;674;45.552;-122.600;2022-11-15T16:48:50;14.60;;;10.67;;
1360;SDS011;674;45.552;-122.600;2022-11-15T16:51:23;14.03;;;10.60;;
1360;SDS011;674;45.552;-122.600;2022-11-15T16:53:51;14.90;;;11.00;;
1360;SDS011;674;45.552;-122.600;2022-11-15T16:56:23;14.13;;;9.90;;
1360;SDS011;674;45.552;-122.600;2022-11-15T16:58:56;11.67;;;10.10;;
1360;SDS011;674;45.552;-122.600;2022-11-15T17:01:30;14.30;;;9.83;;
1360;SDS011;674;45.552;-122.600;2022-11-15T17:04:02;13.23;;;10.07;;
1360;SDS011;674;45.552;-122.600;2022-11-15T17:06:39;13.87;;;10.20;;
1360;SDS011;674;45.552;-122.600;2022-11-15T17:09:13;13.83;;;9.90;;
1360;SDS011;674;45.552;-122.600;2022-11-15T17:11:52;15.47;;;10.70;;
1360;SDS011;674;45.552;-122.600;2022-11-15T17:14:20;14.07;;;10.63;;
1360;SDS011;674;45.552;-122.600;2022-11-15T17:16:49;14.37;;;10.20;;
1360;SDS011;674;45.552;-122.600;2022-11-15T17:19:18;15.23;;;10.10;;
1360;SDS011;674;45.552;-122.600;2022-11-15T17:21:47;17.30;;;10.83;;
1360;SDS011;674;45.552;-122.600;2022-11-15T17:24:16;16.40;;;10.70;;
1360;SDS011;674;45.552;-122.600;2022-11-15T17:26:46;17.53;;;10.90;;
1360;SDS011;674;45.552;-122.600;2022-11-15T17:29:15;13.83;;;10.47;;
1360;SDS011;674;45.552;-122.600;2022-11-15T17:31:44;14.90;;;11.17;;